Broadview Heights, OH

5:23 PM EDT on August 27, 2014 (GMT -0400)
KOHBROAD2 | Change Station
CLOSE
Current Station
Personal Weather Station
Location: Broadview Heights, OH
Elevation: 1152 ft
Nearby Weather Stations

Elev 1152 ft 41.28 °N, 81.70 °W | Updated 0 second ago

Partly Cloudy
Partly Cloudy
73.4 °F
Feels Like 72 °F
N
0.0
Wind Variable Wind from NE
Gusts 0.0 mph

Today
High -- | Low -- °F
--% Chance of Precip.
Yesterday
High -- | Low -- °F
Precip. -- in
6:48 AM 8:07 PM
Waxing Crescent, 5% visible
Pressure 30.08 in
Visibility 10.0 miles
Clouds Few 3000 ft
Few 11000 ft
Few 25000 ft
Heat Index 72 °F
Dew Point 70 °F
Humidity 88%
Rainfall 0.00 in
Snow Depth Not available.
UV 4 out of 12
Pollen 8.80 out of 12
Ozone Good
PM2.5 Moderate
Flu Activity Not available.
METAR KCLE 272051Z 01010KT 10SM FEW030 FEW110 FEW250 23/17 A3009 RMK AO2 SLP185 T02330167 56005

More Conditions Fewer Conditions

Pressure 30.08 in
Visibility 10.0 miles
Clouds Few 3000 ft
Few 11000 ft
Few 25000 ft
Heat Index 72 °F
Dew Point 70 °F
Humidity 88%
Rainfall 0.00 in
Snow Depth Not available.
UV 4 out of 12
Pollen 8.80 out of 12
Ozone Good
PM2.5 Moderate
Flu Activity Not available.
METAR KCLE 272051Z 01010KT 10SM FEW030 FEW110 FEW250 23/17 A3009 RMK AO2 SLP185 T02330167 56005

More Conditions Fewer Conditions

10-Day Weather Forecast

Almanac

Astronomy

Aug. 27, 2014 Rise Set
Actual Time 6:48 AM EDT 8:07 PM EDT
Civil Twilight 6:19 AM EDT 8:36 PM EDT
Nautical Twilight 5:44 AM EDT 9:10 PM EDT
Astronomical Twilight 5:08 AM EDT 9:46 PM EDT
Moon 8:44 AM EDT 8:57 PM EDT
Length of Visible Light 14h 16m
Length of Day
13h 19m
Tomorrow will be 2m 36s shorter.
Waxing Crescent, 5% of the Moon is Illuminated
Today
Waxing Crescent
Sep 2
First Quarter
Sep 8
Full
Sep 15
Last Quarter
Sep 24
New

Today's Extremes

State Highs State Lows

Community

WunderPhotos

Upload Photos

1,747,791 photos uploaded!

Nearby

Air Quality

  Air Quality AQ Index Pollutant
Yesterday Moderate
OZONE
Yesterday Good
PM10
Current Moderate
PM2.5
Current Good
OZONE
Wednesday Moderate
PM2.5
Wednesday Good
OZONE
Thursday Moderate
PM2.5
Thursday Good
OZONE
Friday Moderate
PM2.5
Friday Moderate
OZONE
Saturday Moderate
PM2.5
Saturday Moderate
OZONE
Sunday Moderate
PM2.5
Sunday Good
OZONE

Snow Depth

Station Depth Elevation
No new snow has been reported.

Earthquake Activity

City Distance Mag. Time & Date
No recent earthquake activity has been reported nearby.
Minimum magnitude displayed is 2.5.

Coastal Water Temperatures

Place Temperature
Cleveland, OH 73.9 °F
Fairport, OH 75.9 °F

Nearby Weather Stations